Time;durP1;ratioP1;P1;durP2;ratioP2;P2;SDS_P1;SDS_P2;PMS_P1;PMS_P2;Temp;Humidity;BMP_temperature;BMP_pressure;BME280_temperature;BME280_humidity;BME280_pressure;Samples;Min_cycle;Max_cycle;Signal;HPM_P1;HPM_P2
2023/04/26 00:00:16;;;;;;;2.63;2.43;;;;;;;14.71;61.94;93696.91;5132675;27;20223;-47
2023/04/26 00:02:44;;;;;;;4.83;2.67;;;;;;;14.68;62.21;93702.44;5117777;27;20193;-47
2023/04/26 00:05:11;;;;;;;4.43;3.10;;;;;;;14.63;62.24;93689.31;5109585;28;20607;-47
2023/04/26 00:07:38;;;;;;;2.60;2.40;;;;;;;14.60;62.38;93687.16;5109275;28;20188;-47
2023/04/26 00:10:05;;;;;;;2.93;2.30;;;;;;;14.57;62.35;93684.94;5109812;28;20185;-46
2023/04/26 00:12:32;;;;;;;2.67;2.47;;;;;;;14.30;62.37;93646.13;5122703;28;20181;-46
2023/04/26 00:14:59;;;;;;;3.40;2.63;;;;;;;14.37;62.55;93659.03;5130068;27;20374;-47
2023/04/26 00:17:26;;;;;;;4.33;2.50;;;;;;;14.44;62.54;93670.16;5129811;27;20579;-47
2023/04/26 00:19:56;;;;;;;3.07;2.40;;;;;;;14.41;62.72;93667.16;5129830;27;20296;-46
2023/04/26 00:22:23;;;;;;;3.00;2.80;;;;;;;14.30;62.28;93658.19;5129480;27;20597;-46
2023/04/26 00:24:50;;;;;;;2.90;2.50;;;;;;;14.34;62.71;93662.00;5130149;27;20541;-46
2023/04/26 00:27:17;;;;;;;3.30;3.00;;;;;;;14.31;62.81;93664.91;5129150;27;20188;-46
2023/04/26 00:29:44;;;;;;;2.60;2.40;;;;;;;14.18;62.79;93651.97;5129590;28;20188;-46
2023/04/26 00:32:11;;;;;;;2.90;2.60;;;;;;;14.25;62.83;93656.19;5128236;28;20188;-47
2023/04/26 00:34:38;;;;;;;2.90;2.60;;;;;;;14.21;62.82;93659.31;5129686;27;20196;-47
2023/04/26 00:37:06;;;;;;;4.00;2.90;;;;;;;14.18;62.91;93655.31;5130030;27;20184;-48
2023/04/26 00:39:33;;;;;;;3.40;3.07;;;;;;;14.16;63.11;93651.34;5129571;27;20224;-47
2023/04/26 00:42:00;;;;;;;3.20;2.90;;;;;;;14.12;63.18;93656.06;5129632;27;20245;-45
2023/04/26 00:44:27;;;;;;;2.90;2.70;;;;;;;14.08;63.01;93648.91;5129218;27;20227;-47
2023/04/26 00:46:54;;;;;;;4.20;3.13;;;;;;;14.09;63.43;93660.78;5129269;27;20199;-47
2023/04/26 00:49:24;;;;;;;3.20;3.00;;;;;;;14.08;63.57;93651.50;5129280;28;20202;-47
2023/04/26 00:51:52;;;;;;;3.83;3.17;;;;;;;14.04;63.58;93662.13;5129233;27;20663;-46
2023/04/26 00:54:21;;;;;;;3.73;3.43;;;;;;;14.02;63.72;93658.94;5131624;27;20661;-47
2023/04/26 00:56:50;;;;;;;3.67;3.37;;;;;;;13.97;63.84;93650.19;5133330;27;20209;-47
2023/04/26 00:59:18;;;;;;;3.83;3.43;;;;;;;13.98;63.99;93655.13;5133385;27;20279;-47
2023/04/26 01:01:44;;;;;;;2.83;2.63;;;;;;;13.96;64.23;93656.31;5133081;27;20188;-47
2023/04/26 01:04:13;;;;;;;3.47;3.17;;;;;;;13.94;64.11;93655.69;5133332;27;20183;-47
2023/04/26 01:06:40;;;;;;;4.30;3.10;;;;;;;13.89;64.22;93658.81;5133134;27;20747;-46
2023/04/26 01:09:08;;;;;;;2.93;2.73;;;;;;;13.89;64.23;93665.72;5133082;27;20185;-46
2023/04/26 01:11:37;;;;;;;3.50;3.20;;;;;;;13.87;64.34;93676.19;5133027;27;20232;-47
2023/04/26 01:14:04;;;;;;;3.97;3.37;;;;;;;13.81;64.47;93661.50;5132791;27;20200;-47
2023/04/26 01:16:32;;;;;;;3.60;3.30;;;;;;;13.84;64.43;93670.63;5133076;27;20274;-47
2023/04/26 01:19:08;;;;;;;3.70;3.40;;;;;;;13.79;64.54;93664.25;5132703;27;20184;-47
2023/04/26 01:21:35;;;;;;;3.43;3.13;;;;;;;13.77;64.70;93650.81;5132739;27;20669;-46
2023/04/26 01:24:03;;;;;;;3.77;3.47;;;;;;;13.74;64.78;93648.59;5132395;27;20220;-47
2023/04/26 01:26:31;;;;;;;4.47;3.27;;;;;;;13.71;64.68;93646.38;5117157;27;20182;-49
2023/04/26 01:28:58;;;;;;;6.10;3.40;;;;;;;13.73;65.11;93651.34;5112325;28;20311;-46
2023/04/26 01:31:24;;;;;;;4.07;3.73;;;;;;;13.70;65.03;93649.94;5112193;28;20193;-46
2023/04/26 01:33:51;;;;;;;3.77;3.47;;;;;;;13.68;64.98;93656.22;5112462;28;20189;-47
2023/04/26 01:36:18;;;;;;;3.50;3.20;;;;;;;13.65;65.20;93657.41;5112327;28;20185;-47
2023/04/26 01:38:45;;;;;;;3.70;3.40;;;;;;;13.64;65.30;93657.56;5112313;28;20181;-47
2023/04/26 01:41:13;;;;;;;3.80;3.50;;;;;;;13.63;65.20;93661.91;5126688;27;20216;-48
2023/04/26 01:43:40;;;;;;;3.70;3.40;;;;;;;13.61;65.39;93663.88;5133734;27;20189;-47
2023/04/26 01:46:06;;;;;;;4.03;3.60;;;;;;;13.60;65.38;93664.84;5132389;27;20222;-47
2023/04/26 01:48:33;;;;;;;4.33;3.30;;;;;;;13.59;65.39;93665.03;5132431;27;20192;-47
2023/04/26 01:51:00;;;;;;;3.83;3.40;;;;;;;13.59;65.35;93659.88;5132064;27;20192;-46
2023/04/26 01:53:27;;;;;;;4.03;3.63;;;;;;;13.59;65.13;93659.88;5132249;27;20196;-47
2023/04/26 01:55:54;;;;;;;3.83;3.33;;;;;;;13.58;65.32;93656.53;5132187;27;20189;-48
2023/04/26 01:58:23;;;;;;;3.50;3.20;;;;;;;13.58;65.16;93653.16;5133533;27;20566;-48
2023/04/26 02:00:49;;;;;;;4.70;4.03;;;;;;;13.58;65.04;93645.47;5131619;27;20235;-48
2023/04/26 02:03:17;;;;;;;3.97;3.63;;;;;;;13.56;65.04;93643.09;5132163;27;20196;-46
2023/04/26 02:05:43;;;;;;;3.83;3.53;;;;;;;13.51;64.92;93627.41;5131003;27;20177;-47
2023/04/26 02:08:10;;;;;;;3.43;3.13;;;;;;;13.54;64.96;93632.19;5132116;27;20249;-47
2023/04/26 02:10:37;;;;;;;3.20;3.00;;;;;;;13.54;64.65;93645.81;5131701;27;20185;-47
2023/04/26 02:13:04;;;;;;;2.90;2.70;;;;;;;13.53;64.74;93638.28;5131725;27;20788;-46
2023/04/26 02:15:32;;;;;;;3.90;3.50;;;;;;;13.51;64.76;93630.78;5131965;27;20188;-46
2023/04/26 02:17:58;;;;;;;4.03;3.57;;;;;;;13.51;64.53;93638.50;5131500;27;20200;-48
2023/04/26 02:20:25;;;;;;;3.63;3.20;;;;;;;13.48;64.71;93627.78;5131063;27;20291;-47
2023/04/26 02:22:52;;;;;;;3.30;3.00;;;;;;;13.49;64.65;93635.28;5131435;27;20386;-48
2023/04/26 02:25:19;;;;;;;3.30;3.10;;;;;;;13.47;64.57;93631.31;5131740;27;20188;-48
2023/04/26 02:27:46;;;;;;;2.80;2.60;;;;;;;13.42;64.73;93629.28;5131504;27;20494;-48
2023/04/26 02:30:13;;;;;;;3.40;3.10;;;;;;;13.33;64.94;93604.69;5131692;27;20192;-47
2023/04/26 02:32:41;;;;;;;3.20;2.90;;;;;;;13.45;64.75;93630.69;5131491;27;20203;-46
2023/04/26 02:35:09;;;;;;;3.67;3.17;;;;;;;13.45;64.75;93643.53;5131736;27;20267;-47
2023/04/26 02:37:36;;;;;;;3.43;3.13;;;;;;;13.45;64.65;93643.53;5131304;27;20630;-47
2023/04/26 02:40:04;;;;;;;3.50;2.90;;;;;;;13.45;64.86;93641.75;5131861;27;20327;-47
2023/04/26 02:42:31;;;;;;;3.03;2.83;;;;;;;13.46;64.97;93640.78;5131889;27;20193;-48
2023/04/26 02:44:58;;;;;;;3.57;3.27;;;;;;;13.48;64.80;93641.41;5131170;27;20692;-47
2023/04/26 02:47:25;;;;;;;3.80;3.50;;;;;;;13.49;64.79;93637.06;5131208;27;20207;-47
2023/04/26 02:49:53;;;;;;;2.80;2.60;;;;;;;13.51;64.89;93628.22;5130932;27;20188;-48
2023/04/26 02:52:20;;;;;;;3.60;3.30;;;;;;;13.53;64.90;93630.59;5131541;27;20180;-47
2023/04/26 02:54:46;;;;;;;4.00;3.70;;;;;;;13.54;65.07;93624.47;5130560;27;20590;-47
2023/04/26 02:57:13;;;;;;;3.80;3.50;;;;;;;13.55;64.80;93618.34;5131428;27;20176;-46
2023/04/26 02:59:40;;;;;;;3.93;3.63;;;;;;;13.58;64.94;93617.19;5130894;27;20296;-46
2023/04/26 03:02:07;;;;;;;3.67;3.37;;;;;;;13.48;64.92;93599.53;5130829;27;20195;-46
2023/04/26 03:04:34;;;;;;;5.37;3.90;;;;;;;13.59;64.93;93617.00;5130667;27;20191;-47
2023/04/26 03:07:03;;;;;;;4.00;3.60;;;;;;;13.61;64.91;93621.97;5130844;27;20238;-47
2023/04/26 03:09:30;;;;;;;4.13;3.83;;;;;;;13.63;65.12;93620.81;5130699;27;20185;-47
2023/04/26 03:11:57;;;;;;;3.90;3.60;;;;;;;13.65;65.14;93628.34;5131093;27;20184;-46
2023/04/26 03:14:24;;;;;;;4.90;4.40;;;;;;;13.65;65.11;93621.44;5130898;27;20189;-46
2023/04/26 03:16:50;;;;;;;4.27;3.87;;;;;;;13.65;65.00;93613.72;5130097;27;20200;-48
2023/04/26 03:19:17;;;;;;;4.67;4.23;;;;;;;13.66;65.18;93610.19;5130539;27;20199;-47
2023/04/26 03:21:44;;;;;;;4.93;4.30;;;;;;;13.69;65.34;93627.00;5130361;27;20234;-47
2023/04/26 03:24:12;;;;;;;4.50;4.10;;;;;;;13.70;65.34;93620.88;5130024;27;20185;-46
2023/04/26 03:26:39;;;;;;;5.63;4.77;;;;;;;13.73;65.33;93620.50;5130362;27;20180;-47
2023/04/26 03:29:07;;;;;;;4.70;4.30;;;;;;;13.70;65.41;93613.97;5130414;27;20200;-50
2023/04/26 03:31:34;;;;;;;4.80;4.30;;;;;;;13.76;65.44;93613.22;5130460;27;20192;-46
2023/04/26 03:34:03;;;;;;;4.77;4.10;;;;;;;13.78;65.14;93620.78;5130706;27;20191;-46
2023/04/26 03:36:30;;;;;;;6.50;4.13;;;;;;;13.73;65.17;93615.34;5131035;27;20815;-47
2023/04/26 03:38:56;;;;;;;4.80;4.10;;;;;;;13.81;65.16;93621.16;5130150;27;20276;-47
2023/04/26 03:41:25;;;;;;;4.43;4.03;;;;;;;13.82;65.08;93622.00;5130567;27;20220;-48
2023/04/26 03:43:52;;;;;;;5.07;4.10;;;;;;;13.89;65.08;93629.75;5130802;27;20267;-49
2023/04/26 03:46:19;;;;;;;5.30;3.93;;;;;;;13.93;65.10;93636.13;5131419;27;20187;-50
2023/04/26 03:48:45;;;;;;;5.30;3.87;;;;;;;13.98;64.78;93642.28;5130936;27;20267;-48
2023/04/26 03:51:12;;;;;;;4.23;3.77;;;;;;;14.02;64.85;93633.22;5129912;27;20196;-49
2023/04/26 03:53:40;;;;;;;4.63;4.10;;;;;;;13.98;64.68;93626.88;5130645;27;20191;-49
2023/04/26 03:56:09;;;;;;;4.83;4.03;;;;;;;14.12;64.44;93637.25;5131498;27;20184;-47
2023/04/26 03:58:37;;;;;;;4.63;4.10;;;;;;;14.16;64.46;93641.88;5131550;27;20199;-50
2023/04/26 04:01:05;;;;;;;4.90;3.93;;;;;;;14.23;64.38;93642.69;5130648;27;20224;-50
2023/04/26 04:03:31;;;;;;;5.97;3.77;;;;;;;14.26;64.24;93642.34;5130159;27;20192;-50
2023/04/26 04:05:58;;;;;;;4.30;3.90;;;;;;;14.37;64.21;93653.88;5129993;27;20192;-46
2023/04/26 04:08:25;;;;;;;5.60;4.10;;;;;;;14.44;63.99;93653.94;5129802;27;20193;-47
2023/04/26 04:10:52;;;;;;;5.77;3.53;;;;;;;14.52;63.86;93654.63;5129843;27;20237;-48
2023/04/26 04:13:18;;;;;;;4.73;3.90;;;;;;;14.61;63.67;93657.84;5129856;27;20203;-49
2023/04/26 04:15:47;;;;;;;4.23;3.90;;;;;;;14.67;63.47;93658.88;5130061;27;20668;-49
2023/04/26 04:18:13;;;;;;;4.17;3.57;;;;;;;14.75;63.23;93651.81;5129730;27;20290;-48
2023/04/26 04:20:41;;;;;;;4.07;3.63;;;;;;;14.83;63.32;93660.38;5129566;27;20698;-46
2023/04/26 04:23:08;;;;;;;5.00;3.97;;;;;;;14.90;63.11;93664.59;5129416;28;20235;-47
2023/04/26 04:25:35;;;;;;;5.60;4.27;;;;;;;15.02;63.12;93662.25;5129421;28;20188;-49
2023/04/26 04:28:02;;;;;;;3.90;3.50;;;;;;;15.07;62.79;93657.34;5131690;27;20180;-48
2023/04/26 04:30:29;;;;;;;7.20;4.87;;;;;;;15.25;62.69;93673.09;5133638;27;20184;-48
2023/04/26 04:32:59;;;;;;;6.10;4.20;;;;;;;15.43;62.27;93671.75;5133651;27;20196;-49
2023/04/26 04:35:28;;;;;;;5.47;4.90;;;;;;;15.61;61.87;93666.06;5133929;27;20180;-48
2023/04/26 04:37:56;;;;;;;5.97;4.90;;;;;;;15.78;61.82;93668.13;5134043;27;20249;-49
2023/04/26 04:40:24;;;;;;;7.50;4.70;;;;;;;15.80;61.51;93645.56;5133621;27;20320;-48
2023/04/26 04:42:51;;;;;;;6.43;5.27;;;;;;;16.20;60.95;93668.81;5134218;27;20192;-47
2023/04/26 04:45:18;;;;;;;10.50;5.27;;;;;;;16.45;60.56;93660.47;5133596;27;20645;-48
2023/04/26 04:47:45;;;;;;;5.83;5.33;;;;;;;16.69;60.17;93677.94;5133980;27;20199;-47
2023/04/26 04:50:14;;;;;;;5.03;4.53;;;;;;;16.87;59.70;93676.56;5133596;27;20556;-46
2023/04/26 04:52:41;;;;;;;6.40;5.17;;;;;;;17.08;59.66;93672.94;5133545;27;20619;-47
2023/04/26 04:55:09;;;;;;;5.67;4.70;;;;;;;17.21;59.39;93670.34;5133191;27;20188;-46
2023/04/26 04:57:35;;;;;;;5.90;4.47;;;;;;;17.36;59.20;93685.56;5133549;27;20225;-46
2023/04/26 05:00:08;;;;;;;5.03;4.20;;;;;;;17.50;59.13;93680.19;5132900;27;20192;-48
2023/04/26 05:02:35;;;;;;;5.53;4.53;;;;;;;17.63;58.82;93670.78;5132760;27;20749;-47
2023/04/26 05:05:03;;;;;;;4.73;3.13;;;;;;;17.90;70.22;93674.84;5133322;27;20180;-48
2023/04/26 05:07:31;;;;;;;3.27;2.80;;;;;;;18.39;78.24;93669.94;5133640;27;20209;-48
2023/04/26 05:09:58;;;;;;;2.97;2.63;;;;;;;18.87;77.99;93666.78;5132823;27;20638;-48
2023/04/26 05:12:25;;;;;;;6.27;3.27;;;;;;;19.31;76.37;93676.13;5133401;27;20335;-47
2023/04/26 05:14:52;;;;;;;4.33;3.20;;;;;;;19.67;74.75;93670.16;5133171;27;20199;-47
2023/04/26 05:17:18;;;;;;;2.93;2.73;;;;;;;20.00;72.93;93668.94;5133534;27;20191;-49
2023/04/26 05:19:46;;;;;;;4.93;2.90;;;;;;;20.30;71.44;93674.88;5133588;27;20256;-47
2023/04/26 05:22:16;;;;;;;3.90;2.97;;;;;;;20.58;69.89;93672.72;5132925;27;20236;-50
2023/04/26 05:24:45;;;;;;;8.77;2.70;;;;;;;20.85;68.49;93679.03;5133240;27;20199;-47
2023/04/26 05:27:12;;;;;;;4.03;2.73;;;;;;;21.11;67.08;93680.41;5133379;27;20177;-49
2023/04/26 05:29:39;;;;;;;5.30;2.90;;;;;;;21.32;66.15;93667.84;5133436;27;20191;-49
2023/04/26 05:32:06;;;;;;;9.23;3.00;;;;;;;21.68;65.18;93682.38;5132820;27;20230;-46
2023/04/26 05:34:33;;;;;;;5.47;2.95;;;;;;;21.87;64.34;93688.19;5133145;27;20188;-47
2023/04/26 05:37:00;;;;;;;5.18;2.45;;;;;;;21.99;63.59;93689.75;5132815;27;20188;-49
2023/04/26 05:39:27;;;;;;;4.05;3.13;;;;;;;22.13;63.02;93684.28;5132986;27;20184;-48
2023/04/26 05:41:55;;;;;;;3.45;3.03;;;;;;;22.21;62.22;93682.09;5132322;27;20745;-47
2023/04/26 05:44:21;;;;;;;5.03;2.97;;;;;;;22.37;61.40;93687.56;5132734;27;20192;-48
2023/04/26 05:46:48;;;;;;;3.90;2.92;;;;;;;22.50;60.69;93695.09;5132524;27;20199;-47
2023/04/26 05:49:15;;;;;;;4.07;2.90;;;;;;;22.58;60.11;93696.50;5132910;27;20195;-48
2023/04/26 05:51:42;;;;;;;4.90;3.33;;;;;;;22.62;59.86;93693.16;5133753;27;20257;-48
2023/04/26 05:54:09;;;;;;;6.43;3.22;;;;;;;22.69;59.26;93693.03;5134984;27;20192;-47
2023/04/26 05:56:35;;;;;;;5.80;3.15;;;;;;;22.42;58.54;93641.53;5132871;27;20207;-47
2023/04/26 05:59:04;;;;;;;9.02;3.35;;;;;;;22.87;57.82;93699.81;5132512;27;20599;-48
2023/04/26 06:01:30;;;;;;;5.38;3.08;;;;;;;22.87;57.52;93687.56;5133306;27;20224;-49
2023/04/26 06:03:57;;;;;;;3.58;3.28;;;;;;;23.00;56.91;93696.91;5132720;27;20195;-47
2023/04/26 06:06:24;;;;;;;2.83;2.53;;;;;;;23.12;56.13;93699.44;5132633;27;20195;-48
2023/04/26 06:08:51;;;;;;;3.00;2.70;;;;;;;23.30;55.80;93699.16;5132425;27;20177;-48
2023/04/26 06:11:18;;;;;;;3.00;2.78;;;;;;;23.64;54.65;93701.69;5132403;27;20241;-47
2023/04/26 06:13:45;;;;;;;3.33;2.97;;;;;;;23.99;53.79;93693.50;5131830;27;20251;-48
2023/04/26 06:16:13;;;;;;;3.90;2.97;;;;;;;24.52;53.49;93707.63;5132180;27;20204;-47
2023/04/26 06:18:40;;;;;;;3.58;3.03;;;;;;;24.90;52.40;93705.84;5132225;27;20188;-49
2023/04/26 06:21:07;;;;;;;3.85;2.60;;;;;;;25.06;51.88;93702.31;5132254;27;20214;-48
2023/04/26 06:23:33;;;;;;;6.13;2.70;;;;;;;25.13;51.92;93710.78;5131685;27;20219;-47
2023/04/26 06:26:00;;;;;;;2.70;2.50;;;;;;;25.19;52.13;93708.97;5132018;27;20299;-48
2023/04/26 06:28:27;;;;;;;2.85;2.40;;;;;;;25.16;51.93;93715.47;5132050;27;20684;-47
2023/04/26 06:30:54;;;;;;;2.95;2.50;;;;;;;25.12;51.62;93717.03;5131737;27;20204;-48
2023/04/26 06:33:22;;;;;;;3.20;2.40;;;;;;;25.14;51.21;93720.19;5132011;27;20199;-47
2023/04/26 06:35:49;;;;;;;4.43;2.63;;;;;;;25.13;50.45;93708.16;5131661;27;20576;-47
2023/04/26 06:38:15;;;;;;;3.33;3.03;;;;;;;25.21;50.07;93712.88;5132119;27;20252;-49
2023/04/26 06:40:42;;;;;;;4.63;2.63;;;;;;;25.35;49.64;93712.47;5131333;27;20188;-48
2023/04/26 06:43:09;;;;;;;2.60;2.40;;;;;;;25.50;49.39;93715.16;5131554;27;20184;-47
2023/04/26 06:45:36;;;;;;;2.70;2.40;;;;;;;25.82;49.16;93716.91;5131748;27;20181;-48
2023/04/26 06:48:04;;;;;;;2.30;2.10;;;;;;;26.25;47.83;93720.97;5131167;27;20274;-49
2023/04/26 06:50:32;;;;;;;2.53;2.33;;;;;;;26.88;47.47;93720.81;5130828;27;20185;-49
2023/04/26 06:52:58;;;;;;;2.60;2.40;;;;;;;27.72;47.11;93714.97;5131461;27;20274;-48
2023/04/26 06:55:25;;;;;;;4.72;2.25;;;;;;;28.58;46.49;93725.34;5131042;27;20196;-49
2023/04/26 06:57:52;;;;;;;2.25;2.05;;;;;;;29.13;45.30;93713.63;5131367;27;20185;-49
2023/04/26 07:00:20;;;;;;;4.30;2.53;;;;;;;29.60;44.57;93727.16;5130998;27;20595;-47
2023/04/26 07:02:46;;;;;;;2.33;2.05;;;;;;;29.87;43.91;93722.09;5130764;27;20220;-48
2023/04/26 07:05:14;;;;;;;3.20;2.10;;;;;;;30.25;43.35;93738.03;5131082;27;20185;-48
2023/04/26 07:07:42;;;;;;;3.08;2.22;;;;;;;30.64;43.14;93734.34;5130858;27;20612;-47
2023/04/26 07:10:09;;;;;;;2.10;1.90;;;;;;;31.13;42.96;93731.25;5130680;27;20200;-48
2023/04/26 07:12:36;;;;;;;2.60;2.20;;;;;;;31.48;42.00;93726.44;5130810;27;20641;-47
2023/04/26 07:15:05;;;;;;;1.80;1.70;;;;;;;31.75;41.74;93728.31;5130628;27;20661;-48
2023/04/26 07:17:32;;;;;;;2.10;2.00;;;;;;;32.06;41.03;93733.03;5130636;27;20245;-47
2023/04/26 07:19:58;;;;;;;3.35;1.95;;;;;;;32.32;40.79;93730.66;5130728;27;20632;-46
2023/04/26 07:22:25;;;;;;;2.22;2.13;;;;;;;32.64;40.06;93735.81;5130455;27;20232;-47
2023/04/26 07:24:53;;;;;;;2.30;2.10;;;;;;;33.02;39.83;93730.16;5130916;27;20236;-48
2023/04/26 07:27:20;;;;;;;2.20;2.03;;;;;;;33.14;39.59;93727.75;5130809;27;20187;-47
2023/04/26 07:29:47;;;;;;;2.00;1.90;;;;;;;33.11;39.40;93717.75;5130942;27;20188;-48
2023/04/26 07:32:15;;;;;;;2.75;1.98;;;;;;;33.03;39.39;93734.38;5131264;27;20239;-50
2023/04/26 07:34:41;;;;;;;1.92;1.70;;;;;;;32.86;39.30;93736.88;5131362;27;20180;-47
2023/04/26 07:37:08;;;;;;;2.42;2.20;;;;;;;32.68;39.28;93734.09;5130572;27;20590;-48
2023/04/26 07:39:35;;;;;;;2.22;2.13;;;;;;;32.47;39.14;93735.63;5131111;27;20199;-48
2023/04/26 07:42:03;;;;;;;2.15;2.05;;;;;;;32.27;39.08;93739.47;5130397;27;20204;-49
2023/04/26 07:44:30;;;;;;;2.67;1.90;;;;;;;32.11;39.01;93748.81;5130499;27;20201;-48
2023/04/26 07:46:57;;;;;;;1.80;1.70;;;;;;;31.92;38.80;93751.56;5130469;27;20192;-47
2023/04/26 07:49:23;;;;;;;2.50;2.30;;;;;;;31.77;38.61;93754.44;5130018;27;20188;-47
2023/04/26 07:51:51;;;;;;;4.18;1.85;;;;;;;31.63;38.08;93747.28;5130172;27;20233;-47
2023/04/26 07:54:18;;;;;;;2.00;1.90;;;;;;;31.58;37.81;93757.19;5131486;27;20275;-48
2023/04/26 07:56:45;;;;;;;2.15;2.05;;;;;;;31.56;38.04;93756.69;5132439;27;20188;-46
2023/04/26 07:59:13;;;;;;;3.47;2.10;;;;;;;31.58;38.07;93759.84;5129846;27;20192;-47
2023/04/26 08:01:40;;;;;;;2.30;1.90;;;;;;;31.65;37.93;93758.38;5129977;27;20227;-48
2023/04/26 08:04:07;;;;;;;1.77;1.67;;;;;;;31.73;37.96;93755.03;5129860;27;20184;-48
2023/04/26 08:06:33;;;;;;;1.85;1.58;;;;;;;31.80;37.53;93757.31;5129926;27;20653;-49
2023/04/26 08:09:00;;;;;;;2.22;2.13;;;;;;;31.78;37.52;93761.31;5130155;27;20584;-49
2023/04/26 08:11:27;;;;;;;2.10;1.90;;;;;;;31.77;37.48;93759.75;5130556;27;20180;-47
2023/04/26 08:13:54;;;;;;;2.33;2.13;;;;;;;31.77;37.34;93755.22;5130127;27;20188;-48
2023/04/26 08:16:22;;;;;;;2.30;2.10;;;;;;;31.74;36.89;93750.56;5129745;27;20192;-49
2023/04/26 08:18:49;;;;;;;1.80;1.70;;;;;;;31.66;36.71;93764.44;5130014;27;20192;-47
2023/04/26 08:21:15;;;;;;;2.10;2.00;;;;;;;31.64;36.39;93759.44;5129252;27;20216;-47
2023/04/26 08:23:42;;;;;;;2.00;1.90;;;;;;;31.33;36.64;93692.34;5129915;27;20181;-50
2023/04/26 08:26:09;;;;;;;1.95;1.73;;;;;;;31.80;36.42;93764.44;5129973;27;20577;-51
2023/04/26 08:28:36;;;;;;;1.80;1.70;;;;;;;31.72;36.16;93761.41;5129970;27;20613;-49
2023/04/26 08:31:03;;;;;;;1.92;1.83;;;;;;;31.61;35.73;93754.75;5129825;27;20184;-47
2023/04/26 08:33:32;;;;;;;1.92;1.83;;;;;;;31.59;35.69;93759.53;5129661;27;20196;-47
2023/04/26 08:35:59;;;;;;;2.05;1.95;;;;;;;31.51;35.69;93762.06;5129473;27;20180;-46
2023/04/26 08:38:26;;;;;;;1.90;1.80;;;;;;;31.44;35.91;93754.53;5129724;27;20637;-48
2023/04/26 08:40:56;;;;;;;2.20;2.00;;;;;;;31.32;35.59;93757.63;5129499;27;20274;-49
2023/04/26 08:43:23;;;;;;;2.28;2.10;;;;;;;31.16;35.50;93757.06;5130068;27;20264;-47
2023/04/26 08:45:50;;;;;;;2.42;1.88;;;;;;;31.01;35.20;93759.97;5129766;27;20620;-48
2023/04/26 08:48:18;;;;;;;2.22;2.00;;;;;;;30.82;35.53;93754.69;5129886;27;20208;-47
2023/04/26 08:50:46;;;;;;;2.28;1.70;;;;;;;30.73;35.45;93761.69;5129857;27;20192;-47
2023/04/26 08:53:16;;;;;;;2.40;2.13;;;;;;;30.62;35.61;93760.25;5129673;27;20245;-49
2023/04/26 08:55:47;;;;;;;2.80;2.13;;;;;;;30.50;35.60;93765.94;5129970;27;20188;-47
2023/04/26 08:58:15;;;;;;;2.22;2.03;;;;;;;30.34;35.26;93756.66;5130947;27;20192;-48
2023/04/26 09:00:44;;;;;;;1.92;1.83;;;;;;;30.26;34.97;93759.91;5131230;27;20215;-50
2023/04/26 09:03:11;;;;;;;1.90;1.80;;;;;;;30.13;35.01;93751.59;5129289;27;20220;-49
2023/04/26 09:05:42;;;;;;;2.20;2.00;;;;;;;30.03;35.25;93764.91;5129526;27;20653;-48
2023/04/26 09:08:15;;;;;;;3.22;1.98;;;;;;;29.90;35.17;93768.22;5129175;27;20227;-48
2023/04/26 09:10:42;;;;;;;3.28;1.98;;;;;;;29.79;35.19;93766.75;5130119;27;20215;-48
2023/04/26 09:13:08;;;;;;;3.33;1.98;;;;;;;29.48;35.47;93740.69;5129188;27;20645;-49
2023/04/26 09:15:35;;;;;;;2.00;1.90;;;;;;;29.47;35.47;93763.63;5133589;27;20184;-49
2023/04/26 09:18:16;;;;;;;2.00;1.90;;;;;;;29.32;35.23;93771.69;5132906;27;20203;-48
2023/04/26 09:20:45;;;;;;;1.80;1.70;;;;;;;29.16;35.54;93763.09;5132928;27;20282;-48
2023/04/26 09:23:15;;;;;;;1.90;1.80;;;;;;;29.11;35.44;93770.28;5132625;27;20254;-47
2023/04/26 09:25:42;;;;;;;1.70;1.60;;;;;;;29.08;35.00;93776.88;5133230;27;20245;-48
2023/04/26 09:28:23;;;;;;;2.30;2.10;;;;;;;29.03;35.66;93766.38;5132930;27;20190;-46
2023/04/26 09:30:50;;;;;;;1.60;1.50;;;;;;;29.00;35.19;93772.19;5133370;27;20207;-47
2023/04/26 09:33:18;;;;;;;1.88;1.77;;;;;;;28.85;35.44;93759.13;5132145;27;20196;-46
2023/04/26 09:35:44;;;;;;;4.93;1.88;;;;;;;28.90;35.30;93764.34;5133118;27;20207;-49
2023/04/26 09:38:14;;;;;;;1.80;1.70;;;;;;;28.87;35.38;93776.19;5132587;27;20192;-47
2023/04/26 09:40:42;;;;;;;2.05;1.95;;;;;;;28.76;35.23;93758.91;5132937;27;20195;-47
2023/04/26 09:43:11;;;;;;;3.33;1.88;;;;;;;28.76;35.22;93766.81;5132328;27;20257;-47
2023/04/26 09:45:47;;;;;;;1.73;1.63;;;;;;;28.73;35.23;93754.19;5132671;27;20208;-48
2023/04/26 09:48:21;;;;;;;2.28;2.05;;;;;;;28.71;34.82;93759.75;5132271;27;20199;-49
2023/04/26 09:50:48;;;;;;;2.38;1.70;;;;;;;28.72;34.78;93760.53;5133360;27;20192;-49
2023/04/26 09:53:33;;;;;;;2.20;1.60;;;;;;;28.56;35.06;93740.63;5133372;27;20257;-49
2023/04/26 09:56:08;;;;;;;2.65;1.70;;;;;;;28.62;35.14;93761.34;5133707;27;20196;-48
2023/04/26 09:58:36;;;;;;;1.42;1.42;;;;;;;28.62;34.75;93756.09;5132433;27;20260;-48
2023/04/26 10:01:05;;;;;;;2.05;1.80;;;;;;;28.63;34.82;93755.06;5132443;27;20217;-47
2023/04/26 10:03:34;;;;;;;1.95;1.85;;;;;;;28.65;34.57;93752.13;5132053;27;20727;-51
2023/04/26 10:06:01;;;;;;;1.75;1.65;;;;;;;28.68;34.55;93744.50;5132286;27;20192;-48
2023/04/26 10:08:31;;;;;;;1.90;1.77;;;;;;;28.73;34.45;93746.28;5132015;27;20199;-47
2023/04/26 10:10:58;;;;;;;1.73;1.63;;;;;;;28.80;34.33;93748.59;5132270;27;20641;-48
2023/04/26 10:13:25;;;;;;;1.88;1.77;;;;;;;28.84;34.45;93753.03;5131737;27;20645;-49
2023/04/26 10:15:53;;;;;;;1.90;1.80;;;;;;;28.91;34.07;93742.22;5132366;27;20199;-47
2023/04/26 10:18:20;;;;;;;1.83;1.73;;;;;;;28.91;34.05;93745.63;5131832;27;20215;-47
2023/04/26 10:20:53;;;;;;;2.20;1.73;;;;;;;28.94;34.13;93749.56;5132422;27;20181;-48
2023/04/26 10:23:24;;;;;;;2.17;2.00;;;;;;;28.87;33.95;93735.94;5131498;27;20227;-48
2023/04/26 10:25:53;;;;;;;2.10;1.90;;;;;;;28.90;34.26;93740.66;5130989;27;20221;-49
2023/04/26 10:28:56;;;;;;;1.80;1.60;;;;;;;28.88;33.84;93740.13;5131755;27;20196;-48
2023/04/26 10:31:23;;;;;;;1.60;1.50;;;;;;;28.81;33.80;93740.44;5131896;27;20234;-49
2023/04/26 10:34:18;;;;;;;1.75;1.50;;;;;;;28.79;33.71;93747.03;5132347;27;20199;-48
2023/04/26 10:37:09;;;;;;;1.70;1.60;;;;;;;28.73;33.88;93747.06;5131718;27;20656;-47
2023/04/26 10:39:36;;;;;;;1.80;1.70;;;;;;;28.66;33.49;93746.59;5131552;27;20192;-47
2023/04/26 10:42:24;;;;;;;1.73;1.60;;;;;;;28.56;33.88;93743.25;5131311;27;20251;-47
2023/04/26 10:44:51;;;;;;;1.60;1.50;;;;;;;28.43;33.96;93737.53;5131730;27;20200;-48
2023/04/26 10:47:24;;;;;;;1.55;1.45;;;;;;;28.39;34.04;93749.66;5132059;27;20208;-49
2023/04/26 10:49:51;;;;;;;2.10;1.90;;;;;;;28.37;33.76;93740.44;5131319;27;20188;-48
2023/04/26 10:52:21;;;;;;;1.75;1.65;;;;;;;28.32;33.62;93735.19;5131917;27;20739;-48
2023/04/26 10:54:50;;;;;;;1.63;1.52;;;;;;;28.23;33.92;93735.75;5131453;27;20275;-49
2023/04/26 10:57:18;;;;;;;1.75;1.65;;;;;;;28.07;34.08;93739.53;5131159;27;20204;-47
2023/04/26 11:00:35;;;;;;;1.70;1.60;;;;;;;27.93;33.95;93731.44;5131394;27;20195;-48
2023/04/26 11:03:11;;;;;;;1.65;1.55;;;;;;;27.79;33.82;93727.81;5049451;28;20681;-48
2023/04/26 11:05:54;;;;;;;1.85;1.58;;;;;;;27.82;33.74;93734.38;5047776;28;20303;-49
2023/04/26 11:08:25;;;;;;;1.58;1.48;;;;;;;27.60;34.23;93709.19;5047348;28;20183;-48
2023/04/26 11:10:59;;;;;;;1.45;1.35;;;;;;;27.71;33.91;93738.84;5047514;28;20195;-48
2023/04/26 11:13:26;;;;;;;2.03;1.73;;;;;;;27.66;33.81;93733.59;5049047;28;20683;-49
2023/04/26 11:16:02;;;;;;;2.58;1.70;;;;;;;27.61;33.65;93736.25;5049876;28;20202;-50
2023/04/26 11:18:32;;;;;;;1.90;1.70;;;;;;;27.56;34.06;93736.25;5049256;28;20195;-49
2023/04/26 11:20:59;;;;;;;1.65;1.40;;;;;;;27.55;33.99;93730.22;5049472;28;20195;-52
2023/04/26 11:23:28;;;;;;;1.63;1.52;;;;;;;27.57;33.63;93728.09;5048685;28;20234;-50
2023/04/26 11:25:57;;;;;;;1.60;1.50;;;;;;;27.56;33.64;93728.38;5048483;28;20198;-50
2023/04/26 11:28:24;;;;;;;1.67;1.40;;;;;;;27.54;33.80;93733.88;5047346;28;20280;-47
2023/04/26 11:30:52;;;;;;;1.30;1.30;;;;;;;27.44;33.83;93720.78;5048923;28;20206;-48
2023/04/26 11:33:22;;;;;;;1.83;1.67;;;;;;;27.39;33.92;93732.09;5048509;28;20269;-48
2023/04/26 11:35:51;;;;;;;1.70;1.60;;;;;;;27.30;33.53;93732.91;5048531;28;20194;-49
2023/04/26 11:38:18;;;;;;;1.67;1.58;;;;;;;27.09;33.85;93713.72;5057486;27;20468;-48